createdAt,value
2023-06-10T00:00:31.821Z,11.42
2023-06-10T00:02:58.666Z,11.45
2023-06-10T00:05:25.453Z,11.43
2023-06-10T00:07:52.107Z,11.46
2023-06-10T00:10:18.971Z,11.50
2023-06-10T00:12:45.781Z,11.25
2023-06-10T00:15:13.005Z,11.11
2023-06-10T00:17:40.457Z,10.97
2023-06-10T00:20:14.813Z,10.90
2023-06-10T00:22:42.963Z,10.98
2023-06-10T00:25:10.694Z,10.97
2023-06-10T00:27:37.739Z,10.95
2023-06-10T00:30:07.925Z,10.98
2023-06-10T00:32:35.741Z,11.00
2023-06-10T00:35:02.989Z,11.15
2023-06-10T00:37:30.354Z,11.20
2023-06-10T00:39:57.263Z,11.15
2023-06-10T00:42:25.478Z,11.02
2023-06-10T00:44:52.752Z,10.89
2023-06-10T00:47:20.003Z,10.83
2023-06-10T00:49:48.556Z,10.90
2023-06-10T00:52:17.132Z,11.09
2023-06-10T00:54:44.804Z,11.16
2023-06-10T00:57:14.177Z,11.25
2023-06-10T00:59:42.832Z,11.33
2023-06-10T01:02:10.506Z,11.35
2023-06-10T01:04:38.245Z,11.37
2023-06-10T01:07:23.296Z,11.36
2023-06-10T01:09:53.062Z,11.31
2023-06-10T01:12:57.517Z,11.28
2023-06-10T01:15:35.768Z,11.20
2023-06-10T01:18:11.158Z,11.25
2023-06-10T01:20:41.921Z,11.28
2023-06-10T01:23:09.568Z,11.30
2023-06-10T01:25:41.863Z,11.30
2023-06-10T01:28:12.659Z,11.24
2023-06-10T01:30:53.021Z,11.27
2023-06-10T01:33:27.916Z,11.26
2023-06-10T01:35:55.949Z,10.99
2023-06-10T01:38:24.422Z,11.04
2023-06-10T01:40:53.728Z,11.06
2023-06-10T01:43:22.124Z,10.96
2023-06-10T01:45:49.081Z,11.01
2023-06-10T01:48:15.867Z,11.00
2023-06-10T01:50:42.583Z,10.98
2023-06-10T01:53:09.275Z,11.01
2023-06-10T01:55:35.986Z,11.00
2023-06-10T01:58:02.710Z,10.98
2023-06-10T02:00:29.504Z,10.95
2023-06-10T02:02:56.434Z,10.89
2023-06-10T02:05:24.065Z,10.71
2023-06-10T02:07:51.216Z,10.72
2023-06-10T02:10:18.029Z,10.70
2023-06-10T02:12:44.697Z,10.72
2023-06-10T02:15:11.564Z,10.75
2023-06-10T02:17:38.857Z,10.76
2023-06-10T02:20:08.505Z,10.76
2023-06-10T02:22:36.241Z,10.77
2023-06-10T02:25:02.895Z,10.83
2023-06-10T02:27:29.646Z,10.81
2023-06-10T02:29:56.389Z,10.69
2023-06-10T02:32:23.416Z,10.69
2023-06-10T02:34:50.463Z,10.77
2023-06-10T02:37:17.714Z,10.75
2023-06-10T02:39:44.587Z,10.80
2023-06-10T02:42:12.093Z,10.55
2023-06-10T02:44:39.151Z,10.70
2023-06-10T02:47:06.332Z,10.84
2023-06-10T02:49:33.069Z,10.95
2023-06-10T02:52:09.188Z,11.02
2023-06-10T02:54:37.035Z,11.02
2023-06-10T02:57:11.125Z,10.89
2023-06-10T02:59:37.879Z,10.84
2023-06-10T03:02:05.024Z,10.96
2023-06-10T03:04:31.876Z,10.99
2023-06-10T03:06:58.679Z,11.02
2023-06-10T03:09:25.484Z,11.00
2023-06-10T03:11:52.204Z,11.04
2023-06-10T03:14:18.990Z,11.12
2023-06-10T03:16:46.690Z,11.12
2023-06-10T03:19:13.505Z,11.24
2023-06-10T03:21:42.773Z,11.38
2023-06-10T03:24:09.621Z,11.45
2023-06-10T03:26:36.324Z,11.56
2023-06-10T03:29:03.241Z,11.72
2023-06-10T03:31:30.691Z,11.65
2023-06-10T03:33:57.600Z,11.49
2023-06-10T03:36:24.322Z,11.53
2023-06-10T03:38:53.060Z,11.48
2023-06-10T03:41:22.418Z,11.67
2023-06-10T03:43:49.154Z,11.78
2023-06-10T03:46:16.123Z,11.88
2023-06-10T03:48:43.677Z,11.97
2023-06-10T03:51:11.072Z,12.05
2023-06-10T03:53:37.753Z,12.16
2023-06-10T03:56:04.633Z,12.23
2023-06-10T03:58:31.349Z,12.30
2023-06-10T04:00:58.114Z,12.39
2023-06-10T04:03:25.168Z,12.39
2023-06-10T04:05:52.282Z,12.52
2023-06-10T04:08:19.165Z,12.45
2023-06-10T04:10:46.067Z,12.63
2023-06-10T04:13:12.798Z,12.72
2023-06-10T04:15:39.458Z,12.85
2023-06-10T04:18:06.308Z,12.82
2023-06-10T04:20:33.318Z,12.82
2023-06-10T04:23:00.866Z,13.00
2023-06-10T04:25:28.307Z,12.99
2023-06-10T04:27:56.224Z,13.04
2023-06-10T04:30:23.080Z,13.35
2023-06-10T04:32:50.266Z,13.50
2023-06-10T04:35:17.279Z,13.57
2023-06-10T04:37:44.061Z,13.52
2023-06-10T04:40:11.696Z,13.63
2023-06-10T04:42:38.651Z,13.58
2023-06-10T04:45:05.868Z,13.80
2023-06-10T04:47:35.451Z,13.80
2023-06-10T04:50:03.832Z,13.87
2023-06-10T04:52:30.550Z,13.90
2023-06-10T04:54:59.551Z,14.01
2023-06-10T04:57:27.286Z,13.99
2023-06-10T04:59:54.431Z,14.20
2023-06-10T05:02:21.345Z,14.24
2023-06-10T05:04:48.214Z,14.37
2023-06-10T05:07:14.911Z,14.57
2023-06-10T05:09:41.629Z,14.59
2023-06-10T05:12:10.163Z,14.67
2023-06-10T05:14:36.943Z,14.74
2023-06-10T05:17:03.848Z,14.93
2023-06-10T05:19:30.714Z,15.73
2023-06-10T05:21:57.421Z,16.53
2023-06-10T05:24:24.489Z,16.90
2023-06-10T05:26:51.374Z,17.28
2023-06-10T05:29:18.154Z,17.85
2023-06-10T05:31:45.069Z,20.10
2023-06-10T05:34:12.080Z,21.61
2023-06-10T05:36:38.926Z,21.90
2023-06-10T05:39:05.675Z,23.33
2023-06-10T05:41:32.413Z,25.14
2023-06-10T05:43:59.117Z,26.36
2023-06-10T05:46:26.029Z,26.59
2023-06-10T05:48:54.421Z,26.89
2023-06-10T05:51:21.260Z,28.19
2023-06-10T05:53:48.028Z,28.46
2023-06-10T05:56:15.972Z,28.35
2023-06-10T05:58:42.774Z,28.86
2023-06-10T06:01:09.493Z,29.10
2023-06-10T06:03:37.578Z,27.73
2023-06-10T06:06:04.673Z,27.70
2023-06-10T06:08:31.887Z,28.18
2023-06-10T06:10:58.994Z,28.91
2023-06-10T06:13:25.744Z,29.70
2023-06-10T06:15:52.570Z,28.41
2023-06-10T06:18:19.921Z,27.38
2023-06-10T06:20:46.615Z,27.84
2023-06-10T06:23:13.329Z,26.42
2023-06-10T06:25:40.401Z,27.56
2023-06-10T06:28:08.648Z,28.96
2023-06-10T06:30:35.334Z,28.67
2023-06-10T06:33:02.585Z,27.32
2023-06-10T06:35:33.155Z,25.63
2023-06-10T06:38:00.103Z,24.72
2023-06-10T06:40:27.156Z,25.17
2023-06-10T06:42:54.228Z,25.70
2023-06-10T06:45:21.097Z,26.14
2023-06-10T06:47:47.898Z,26.69
2023-06-10T06:50:14.693Z,26.03
2023-06-10T06:52:41.516Z,26.62
2023-06-10T06:55:09.004Z,24.74
2023-06-10T06:57:35.864Z,26.17
2023-06-10T07:00:02.575Z,25.90
2023-06-10T07:02:29.333Z,27.35
2023-06-10T07:04:57.249Z,28.09
2023-06-10T07:07:24.108Z,29.66
2023-06-10T07:09:50.895Z,28.97
2023-06-10T07:12:18.907Z,27.99
2023-06-10T07:14:45.818Z,26.37
2023-06-10T07:17:12.670Z,25.26
2023-06-10T07:19:39.435Z,26.40
2023-06-10T07:22:06.678Z,25.92
2023-06-10T07:24:33.374Z,26.27
2023-06-10T07:27:00.027Z,25.23
2023-06-10T07:29:26.731Z,24.70
2023-06-10T07:31:54.636Z,25.06
2023-06-10T07:34:21.656Z,24.64
2023-06-10T07:36:49.310Z,23.89
2023-06-10T07:39:16.194Z,24.03
2023-06-10T07:41:42.966Z,23.58
2023-06-10T07:44:09.781Z,22.85
2023-06-10T07:46:36.654Z,22.96
2023-06-10T07:49:03.545Z,22.99
2023-06-10T07:51:30.468Z,22.99
2023-06-10T07:53:57.223Z,22.71
2023-06-10T07:56:24.974Z,22.96
2023-06-10T07:58:51.710Z,23.15
2023-06-10T08:01:18.440Z,22.80
2023-06-10T08:03:45.406Z,22.29
2023-06-10T08:06:12.830Z,22.41
2023-06-10T08:08:44.419Z,22.42
2023-06-10T08:11:14.929Z,22.35
2023-06-10T08:13:41.727Z,22.24
2023-06-10T08:16:08.874Z,22.59
2023-06-10T08:18:35.836Z,22.46
2023-06-10T08:21:02.540Z,22.24
2023-06-10T08:23:29.561Z,22.32
2023-06-10T08:25:56.275Z,22.22
2023-06-10T08:28:22.944Z,21.61
2023-06-10T08:30:49.999Z,21.64
2023-06-10T08:33:16.740Z,21.62
2023-06-10T08:35:43.538Z,21.52
2023-06-10T08:38:10.441Z,21.62
2023-06-10T08:40:38.203Z,21.35
2023-06-10T08:43:09.609Z,21.04
2023-06-10T08:45:38.102Z,20.62
2023-06-10T08:48:07.871Z,20.76
2023-06-10T08:50:39.131Z,21.06
2023-06-10T08:53:09.231Z,21.05
2023-06-10T08:55:43.056Z,21.19
2023-06-10T08:58:12.138Z,21.30
2023-06-10T09:00:39.279Z,21.35
2023-06-10T09:03:06.789Z,21.44
2023-06-10T09:05:37.825Z,21.37
2023-06-10T09:08:11.124Z,21.19
2023-06-10T09:10:37.966Z,21.22
2023-06-10T09:13:04.841Z,21.06
2023-06-10T09:15:31.705Z,20.90
2023-06-10T09:17:58.673Z,20.71
2023-06-10T09:20:25.668Z,20.25
2023-06-10T09:22:52.713Z,20.26
2023-06-10T09:25:19.504Z,20.11
2023-06-10T09:27:49.983Z,19.70
2023-06-10T09:30:36.250Z,19.09
2023-06-10T09:33:10.364Z,19.47
2023-06-10T09:35:37.252Z,19.47
2023-06-10T09:38:04.105Z,19.26
2023-06-10T09:40:30.910Z,19.93
2023-06-10T09:43:01.305Z,20.35
2023-06-10T09:45:35.101Z,20.83
2023-06-10T09:48:02.241Z,21.62
2023-06-10T09:50:29.394Z,21.54
2023-06-10T09:52:56.260Z,21.22
2023-06-10T09:55:23.396Z,21.74
2023-06-10T09:57:55.504Z,21.80
2023-06-10T10:00:23.969Z,21.23
2023-06-10T10:02:54.696Z,21.15
2023-06-10T10:05:23.544Z,20.66
2023-06-10T10:07:50.859Z,20.95
2023-06-10T10:10:19.852Z,20.79
2023-06-10T10:12:53.906Z,20.76
2023-06-10T10:15:22.560Z,20.37
2023-06-10T10:18:04.830Z,20.64
2023-06-10T10:20:35.605Z,20.60
2023-06-10T10:23:05.269Z,20.40
2023-06-10T10:25:37.277Z,20.29
2023-06-10T10:28:12.342Z,19.81
2023-06-10T10:30:41.569Z,19.39
2023-06-10T10:33:17.608Z,18.64
2023-06-10T10:35:44.823Z,18.57
2023-06-10T10:38:14.219Z,18.13
2023-06-10T10:40:42.504Z,18.03
2023-06-10T10:43:10.254Z,18.04
2023-06-10T10:45:37.018Z,17.52
2023-06-10T10:48:12.766Z,17.27
2023-06-10T10:50:40.270Z,17.08
2023-06-10T10:53:07.384Z,17.06
2023-06-10T10:55:34.679Z,16.99
2023-06-10T10:58:05.197Z,16.93
2023-06-10T11:00:44.877Z,16.81
2023-06-10T11:03:18.638Z,16.87
2023-06-10T11:05:51.108Z,16.80
2023-06-10T11:08:30.349Z,16.78
2023-06-10T11:10:57.444Z,16.52
2023-06-10T11:13:26.864Z,16.61
2023-06-10T11:15:58.639Z,16.72
2023-06-10T11:18:42.685Z,16.56
2023-06-10T11:21:09.475Z,16.70
2023-06-10T11:23:40.781Z,16.81
2023-06-10T11:26:23.550Z,16.81
2023-06-10T11:28:56.163Z,16.85
2023-06-10T11:31:24.789Z,16.91
2023-06-10T11:33:55.504Z,16.96
2023-06-10T11:36:26.170Z,17.02
2023-06-10T11:38:57.865Z,16.72
2023-06-10T11:41:30.060Z,16.69
2023-06-10T11:43:57.945Z,16.87
2023-06-10T11:46:25.004Z,16.98
2023-06-10T11:48:55.651Z,17.11
2023-06-10T11:51:23.065Z,17.05
2023-06-10T11:53:50.732Z,17.02
2023-06-10T11:56:35.645Z,17.07
2023-06-10T11:59:08.621Z,17.31
2023-06-10T12:01:44.640Z,17.07
2023-06-10T12:04:14.115Z,17.51
2023-06-10T12:06:43.024Z,17.77
2023-06-10T12:09:25.392Z,17.81
2023-06-10T12:12:00.454Z,17.98
2023-06-10T12:14:56.644Z,17.76
2023-06-10T12:17:34.291Z,17.88
2023-06-10T12:20:07.647Z,17.69
2023-06-10T12:22:43.358Z,17.95
2023-06-10T12:25:11.746Z,17.87
2023-06-10T12:27:39.991Z,17.71
2023-06-10T12:30:07.946Z,17.87
2023-06-10T12:32:46.976Z,17.80
2023-06-10T12:35:18.956Z,17.72
2023-06-10T12:38:08.252Z,17.80
2023-06-10T12:40:37.459Z,17.88
2023-06-10T12:43:04.480Z,18.00
2023-06-10T12:45:36.317Z,18.08
2023-06-10T12:48:12.298Z,18.18
2023-06-10T12:50:42.670Z,18.29
2023-06-10T12:53:10.912Z,18.26
2023-06-10T12:55:38.239Z,18.40
2023-06-10T12:58:05.280Z,18.67
2023-06-10T13:00:32.505Z,18.81
2023-06-10T13:03:03.118Z,18.78
2023-06-10T13:05:30.850Z,18.61
2023-06-10T13:07:57.537Z,18.74
2023-06-10T13:10:25.985Z,19.12
2023-06-10T13:12:55.878Z,19.29
2023-06-10T13:15:23.107Z,19.43
2023-06-10T13:17:53.112Z,19.60
2023-06-10T13:20:22.016Z,19.44
2023-06-10T13:22:48.953Z,19.30
2023-06-10T13:25:16.175Z,19.13
2023-06-10T13:27:43.988Z,18.81
2023-06-10T13:30:12.045Z,18.92
2023-06-10T13:32:39.404Z,19.00
2023-06-10T13:35:06.653Z,18.96
2023-06-10T13:37:34.875Z,18.99
2023-06-10T13:40:03.203Z,19.07
2023-06-10T13:42:30.693Z,19.07
2023-06-10T13:44:57.898Z,19.07
2023-06-10T13:47:25.766Z,19.03
2023-06-10T13:49:52.639Z,19.08
2023-06-10T13:52:19.439Z,18.79
2023-06-10T13:54:46.260Z,18.96
2023-06-10T13:57:13.061Z,18.91
2023-06-10T13:59:39.747Z,18.81
2023-06-10T14:02:06.502Z,18.99
2023-06-10T14:04:33.836Z,19.07
2023-06-10T14:07:00.706Z,19.13
2023-06-10T14:09:27.507Z,19.06
2023-06-10T14:11:55.512Z,18.83
2023-06-10T14:14:23.555Z,18.63
2023-06-10T14:16:50.392Z,18.50
2023-06-10T14:19:17.202Z,18.39
2023-06-10T14:21:44.775Z,18.42
2023-06-10T14:24:11.547Z,18.27
2023-06-10T14:26:38.669Z,18.15
2023-06-10T14:29:05.754Z,18.22
2023-06-10T14:31:32.493Z,18.29
2023-06-10T14:33:59.810Z,18.29
2023-06-10T14:36:26.817Z,18.13
2023-06-10T14:38:54.701Z,18.10
2023-06-10T14:41:24.246Z,18.10
2023-06-10T14:43:50.924Z,18.15
2023-06-10T14:46:17.709Z,18.19
2023-06-10T14:48:44.581Z,18.26
2023-06-10T14:51:11.297Z,18.22
2023-06-10T14:53:38.011Z,18.44
2023-06-10T14:56:06.379Z,18.38
2023-06-10T14:58:33.051Z,18.41
2023-06-10T15:01:00.079Z,18.49
2023-06-10T15:03:26.952Z,18.38
2023-06-10T15:05:53.993Z,18.49
2023-06-10T15:08:20.725Z,18.55
2023-06-10T15:10:49.493Z,18.50
2023-06-10T15:13:16.216Z,18.26
2023-06-10T15:15:42.915Z,17.97
2023-06-10T15:18:09.722Z,18.23
2023-06-10T15:20:36.417Z,18.29
2023-06-10T15:23:03.144Z,18.41
2023-06-10T15:25:31.857Z,18.55
2023-06-10T15:27:59.343Z,18.34
2023-06-10T15:30:26.578Z,18.05
2023-06-10T15:32:53.643Z,18.25
2023-06-10T15:35:20.645Z,18.23
2023-06-10T15:37:47.424Z,18.08
2023-06-10T15:40:14.152Z,17.99
2023-06-10T15:42:40.999Z,18.40
2023-06-10T15:45:08.353Z,18.53
2023-06-10T15:47:35.626Z,18.48
2023-06-10T15:50:03.206Z,18.50
2023-06-10T15:52:29.967Z,18.60
2023-06-10T15:54:56.719Z,18.49
2023-06-10T15:57:25.840Z,18.30
2023-06-10T15:59:53.630Z,17.99
2023-06-10T16:02:20.646Z,17.81
2023-06-10T16:04:47.360Z,17.77
2023-06-10T16:07:14.213Z,17.87
2023-06-10T16:09:41.074Z,17.76
2023-06-10T16:12:08.316Z,17.61
2023-06-10T16:14:35.063Z,17.65
2023-06-10T16:17:02.090Z,17.72
2023-06-10T16:19:28.954Z,17.73
2023-06-10T16:21:55.870Z,17.74
2023-06-10T16:24:22.671Z,17.69
2023-06-10T16:26:49.758Z,17.77
2023-06-10T16:29:17.019Z,17.77
2023-06-10T16:31:43.847Z,17.86
2023-06-10T16:34:10.960Z,17.88
2023-06-10T16:36:37.717Z,17.91
2023-06-10T16:39:04.479Z,17.74
2023-06-10T16:41:31.205Z,17.55
2023-06-10T16:43:58.667Z,17.51
2023-06-10T16:46:27.189Z,17.58
2023-06-10T16:48:53.947Z,17.55
2023-06-10T16:51:20.664Z,17.46
2023-06-10T16:53:47.881Z,17.45
2023-06-10T16:56:14.533Z,17.44
2023-06-10T16:58:41.235Z,17.53
2023-06-10T17:01:10.013Z,17.57
2023-06-10T17:03:36.898Z,17.57
2023-06-10T17:06:03.775Z,17.30
2023-06-10T17:08:30.633Z,17.19
2023-06-10T17:10:57.294Z,16.83
2023-06-10T17:13:24.096Z,16.87
2023-06-10T17:15:52.429Z,16.86
2023-06-10T17:18:19.488Z,16.87
2023-06-10T17:20:46.399Z,17.00
2023-06-10T17:23:13.284Z,16.97
2023-06-10T17:25:39.973Z,16.89
2023-06-10T17:28:06.758Z,16.90
2023-06-10T17:30:33.690Z,16.87
2023-06-10T17:33:00.533Z,16.82
2023-06-10T17:35:27.361Z,16.81
2023-06-10T17:37:54.126Z,16.80
2023-06-10T17:40:21.006Z,16.74
2023-06-10T17:42:47.858Z,16.65
2023-06-10T17:45:14.683Z,16.60
2023-06-10T17:47:41.388Z,16.50
2023-06-10T17:50:08.580Z,16.37
2023-06-10T17:52:35.478Z,16.04
2023-06-10T17:55:02.228Z,16.00
2023-06-10T17:57:29.571Z,15.95
2023-06-10T17:59:56.483Z,15.96
2023-06-10T18:02:23.362Z,15.97
2023-06-10T18:04:50.144Z,15.96
2023-06-10T18:07:16.950Z,15.89
2023-06-10T18:09:44.033Z,15.87
2023-06-10T18:12:11.592Z,15.80
2023-06-10T18:14:48.489Z,15.72
2023-06-10T18:17:15.265Z,15.87
2023-06-10T18:19:41.969Z,15.87
2023-06-10T18:22:08.818Z,15.67
2023-06-10T18:24:35.575Z,15.43
2023-06-10T18:27:02.323Z,15.32
2023-06-10T18:29:29.153Z,15.40
2023-06-10T18:31:55.963Z,15.40
2023-06-10T18:34:22.778Z,15.41
2023-06-10T18:36:49.576Z,15.48
2023-06-10T18:39:16.520Z,15.57
2023-06-10T18:41:43.284Z,15.61
2023-06-10T18:44:10.004Z,15.62
2023-06-10T18:46:36.803Z,15.56
2023-06-10T18:49:03.765Z,15.54
2023-06-10T18:51:30.502Z,15.49
2023-06-10T18:53:57.363Z,15.54
2023-06-10T18:56:24.618Z,15.48
2023-06-10T18:58:51.650Z,15.44
2023-06-10T19:01:20.647Z,15.27
2023-06-10T19:03:48.911Z,15.31
2023-06-10T19:06:16.792Z,15.34
2023-06-10T19:08:43.473Z,15.17
2023-06-10T19:11:10.404Z,15.21
2023-06-10T19:13:37.210Z,14.81
2023-06-10T19:16:04.615Z,15.05
2023-06-10T19:18:31.296Z,15.08
2023-06-10T19:20:58.018Z,15.16
2023-06-10T19:23:24.739Z,15.15
2023-06-10T19:25:51.625Z,15.18
2023-06-10T19:28:18.532Z,15.24
2023-06-10T19:30:45.219Z,15.16
2023-06-10T19:33:12.418Z,15.20
2023-06-10T19:35:39.565Z,15.08
2023-06-10T19:38:06.262Z,15.02
2023-06-10T19:40:32.961Z,14.76
2023-06-10T19:42:59.729Z,14.76
2023-06-10T19:45:26.440Z,14.53
2023-06-10T19:47:53.213Z,14.36
2023-06-10T19:50:20.183Z,14.41
2023-06-10T19:52:47.001Z,14.55
2023-06-10T19:55:15.297Z,14.64
2023-06-10T19:57:42.087Z,14.56
2023-06-10T20:00:10.073Z,14.63
2023-06-10T20:02:37.037Z,14.75
2023-06-10T20:05:04.105Z,14.64
2023-06-10T20:07:31.213Z,14.40
2023-06-10T20:09:58.563Z,14.41
2023-06-10T20:12:25.253Z,14.56
2023-06-10T20:14:51.942Z,14.58
2023-06-10T20:17:18.633Z,14.64
2023-06-10T20:19:49.351Z,14.66
2023-06-10T20:22:17.281Z,14.63
2023-06-10T20:24:44.149Z,14.66
2023-06-10T20:27:11.512Z,14.56
2023-06-10T20:29:38.243Z,14.46
2023-06-10T20:32:05.270Z,14.60
2023-06-10T20:34:32.147Z,14.65
2023-06-10T20:36:59.059Z,14.54
2023-06-10T20:39:26.537Z,14.67
2023-06-10T20:41:53.294Z,14.57
2023-06-10T20:44:20.012Z,14.46
2023-06-10T20:46:46.718Z,14.32
2023-06-10T20:49:15.378Z,14.43
2023-06-10T20:51:42.343Z,14.47
2023-06-10T20:54:10.105Z,14.33
2023-06-10T20:56:36.845Z,14.18
2023-06-10T20:59:03.673Z,14.39
2023-06-10T21:01:30.535Z,14.34
2023-06-10T21:03:57.506Z,14.48
2023-06-10T21:06:25.356Z,14.41
2023-06-10T21:08:53.040Z,14.27
2023-06-10T21:11:19.983Z,14.36
2023-06-10T21:13:47.417Z,14.39
2023-06-10T21:16:14.256Z,14.43
2023-06-10T21:18:42.036Z,14.33
2023-06-10T21:21:08.816Z,14.38
2023-06-10T21:23:35.608Z,14.37
2023-06-10T21:26:05.812Z,14.43
2023-06-10T21:28:33.651Z,14.43
2023-06-10T21:31:00.515Z,14.43
2023-06-10T21:33:28.082Z,14.07
2023-06-10T21:35:54.966Z,14.20
2023-06-10T21:38:24.141Z,14.13
2023-06-10T21:40:55.232Z,14.20
2023-06-10T21:43:21.982Z,14.27
2023-06-10T21:45:48.662Z,14.26
2023-06-10T21:48:15.952Z,14.26
2023-06-10T21:50:42.651Z,14.36
2023-06-10T21:53:09.345Z,14.36
2023-06-10T21:55:36.082Z,14.37
2023-06-10T21:58:02.929Z,14.34
2023-06-10T22:00:29.896Z,14.16
2023-06-10T22:02:56.813Z,14.07
2023-06-10T22:05:27.146Z,14.15
2023-06-10T22:07:53.909Z,14.08
2023-06-10T22:10:20.748Z,14.03
2023-06-10T22:12:47.445Z,14.12
2023-06-10T22:15:14.906Z,14.16
2023-06-10T22:17:45.187Z,14.19
2023-06-10T22:20:12.819Z,14.23
2023-06-10T22:22:40.378Z,14.24
2023-06-10T22:25:07.866Z,14.19
2023-06-10T22:27:34.817Z,14.19
2023-06-10T22:30:02.241Z,14.21
2023-06-10T22:32:29.158Z,14.12
2023-06-10T22:34:55.913Z,14.03
2023-06-10T22:37:22.855Z,14.06
2023-06-10T22:39:49.609Z,14.07
2023-06-10T22:42:16.361Z,13.91
2023-06-10T22:44:44.005Z,13.96
2023-06-10T22:47:12.171Z,14.01
2023-06-10T22:49:38.853Z,14.04
2023-06-10T22:52:06.162Z,14.02
2023-06-10T22:54:33.119Z,13.84
2023-06-10T22:57:00.738Z,13.91
2023-06-10T22:59:27.540Z,13.98
2023-06-10T23:01:55.004Z,13.99
2023-06-10T23:04:21.844Z,14.01
2023-06-10T23:06:48.597Z,14.03
2023-06-10T23:09:15.728Z,14.01
2023-06-10T23:11:43.179Z,14.03
2023-06-10T23:14:10.847Z,13.70
2023-06-10T23:16:47.251Z,13.61
2023-06-10T23:19:19.251Z,13.69
2023-06-10T23:21:54.708Z,13.72
2023-06-10T23:24:30.655Z,13.80
2023-06-10T23:27:02.619Z,13.84
2023-06-10T23:29:29.669Z,13.90
2023-06-10T23:31:56.763Z,13.89
2023-06-10T23:34:23.883Z,13.93
2023-06-10T23:36:53.439Z,13.89
2023-06-10T23:39:20.583Z,13.87
2023-06-10T23:41:47.452Z,13.97
2023-06-10T23:44:14.431Z,14.00
2023-06-10T23:46:41.324Z,13.80
2023-06-10T23:49:10.119Z,13.69
2023-06-10T23:51:38.400Z,13.70
2023-06-10T23:54:09.924Z,13.72
2023-06-10T23:56:36.635Z,13.76
2023-06-10T23:59:03.353Z,13.75
